sensor_id;sensor_type;location;lat;lon;timestamp;pressure;altitude;pressure_sealevel;temperature;humidity
11605;BME280;5858;43.076;25.626;2023-08-21T00:01:59;99410.75;;;23.88;69.14
11605;BME280;5858;43.076;25.626;2023-08-21T00:04:27;99441.16;;;23.54;71.20
11605;BME280;5858;43.076;25.626;2023-08-21T00:06:54;99374.53;;;23.55;69.15
11605;BME280;5858;43.076;25.626;2023-08-21T00:09:21;99261.00;;;22.70;70.18
11605;BME280;5858;43.076;25.626;2023-08-21T00:11:48;99401.16;;;23.28;71.48
11605;BME280;5858;43.076;25.626;2023-08-21T00:14:15;99358.63;;;22.95;72.14
11605;BME280;5858;43.076;25.626;2023-08-21T00:16:42;99356.56;;;22.80;73.24
11605;BME280;5858;43.076;25.626;2023-08-21T00:19:09;99429.00;;;23.30;72.52
11605;BME280;5858;43.076;25.626;2023-08-21T00:21:38;99351.38;;;22.78;73.10
11605;BME280;5858;43.076;25.626;2023-08-21T00:24:05;99241.56;;;22.19;72.13
11605;BME280;5858;43.076;25.626;2023-08-21T00:26:32;99434.56;;;23.45;70.96
11605;BME280;5858;43.076;25.626;2023-08-21T00:28:59;99342.38;;;22.78;71.19
11605;BME280;5858;43.076;25.626;2023-08-21T00:31:26;99376.25;;;22.82;72.98
11605;BME280;5858;43.076;25.626;2023-08-21T00:33:53;99425.56;;;23.07;73.36
11605;BME280;5858;43.076;25.626;2023-08-21T00:36:20;99381.81;;;22.65;73.89
11605;BME280;5858;43.076;25.626;2023-08-21T00:41:15;99281.72;;;22.28;72.92
11605;BME280;5858;43.076;25.626;2023-08-21T00:43:42;99336.25;;;22.28;74.60
11605;BME280;5858;43.076;25.626;2023-08-21T00:46:09;99395.50;;;22.70;74.70
11605;BME280;5858;43.076;25.626;2023-08-21T00:48:37;99444.16;;;23.10;73.80
11605;BME280;5858;43.076;25.626;2023-08-21T00:51:05;99413.31;;;22.78;74.37
11605;BME280;5858;43.076;25.626;2023-08-21T00:53:33;99302.09;;;22.21;73.64
11605;BME280;5858;43.076;25.626;2023-08-21T00:56:02;99469.75;;;23.04;73.41
11605;BME280;5858;43.076;25.626;2023-08-21T00:58:29;99460.41;;;22.95;73.58
11605;BME280;5858;43.076;25.626;2023-08-21T01:00:57;99409.47;;;22.74;73.25
11605;BME280;5858;43.076;25.626;2023-08-21T01:03:24;99441.94;;;23.07;72.71
11605;BME280;5858;43.076;25.626;2023-08-21T01:05:51;99271.25;;;22.15;71.89
11605;BME280;5858;43.076;25.626;2023-08-21T01:08:24;99454.38;;;23.25;72.62
11605;BME280;5858;43.076;25.626;2023-08-21T01:10:56;99282.75;;;22.22;73.20
11605;BME280;5858;43.076;25.626;2023-08-21T01:13:34;99403.09;;;22.95;73.04
11605;BME280;5858;43.076;25.626;2023-08-21T01:16:05;99354.34;;;22.72;73.67
11605;BME280;5858;43.076;25.626;2023-08-21T01:18:34;99472.13;;;23.28;73.55
11605;BME280;5858;43.076;25.626;2023-08-21T01:21:03;99373.81;;;22.80;73.58
11605;BME280;5858;43.076;25.626;2023-08-21T01:23:33;99311.47;;;22.30;73.47
11605;BME280;5858;43.076;25.626;2023-08-21T01:26:00;99447.06;;;22.99;74.94
11605;BME280;5858;43.076;25.626;2023-08-21T01:28:27;99288.25;;;21.74;75.56
11605;BME280;5858;43.076;25.626;2023-08-21T01:31:00;99342.63;;;22.12;74.71
11605;BME280;5858;43.076;25.626;2023-08-21T01:33:30;99327.59;;;22.10;75.14
11605;BME280;5858;43.076;25.626;2023-08-21T01:36:02;99420.13;;;22.48;75.05
11605;BME280;5858;43.076;25.626;2023-08-21T01:38:33;99420.13;;;22.48;75.35
11605;BME280;5858;43.076;25.626;2023-08-21T01:41:01;99339.19;;;22.00;75.02
11605;BME280;5858;43.076;25.626;2023-08-21T01:43:28;99461.41;;;22.84;75.70
11605;BME280;5858;43.076;25.626;2023-08-21T01:45:55;99444.25;;;22.61;75.24
11605;BME280;5858;43.076;25.626;2023-08-21T01:48:22;99371.66;;;22.23;74.55
11605;BME280;5858;43.076;25.626;2023-08-21T01:50:49;99406.41;;;22.38;74.75
11605;BME280;5858;43.076;25.626;2023-08-21T01:53:16;99395.09;;;22.24;74.96
11605;BME280;5858;43.076;25.626;2023-08-21T01:55:45;99405.53;;;22.33;75.64
11605;BME280;5858;43.076;25.626;2023-08-21T01:58:12;99338.72;;;22.03;74.97
11605;BME280;5858;43.076;25.626;2023-08-21T02:00:39;99294.66;;;21.62;76.46
11605;BME280;5858;43.076;25.626;2023-08-21T02:03:09;99416.53;;;22.16;77.86
11605;BME280;5858;43.076;25.626;2023-08-21T02:05:39;99452.38;;;22.56;76.97
11605;BME280;5858;43.076;25.626;2023-08-21T02:08:08;99350.31;;;21.93;76.69
11605;BME280;5858;43.076;25.626;2023-08-21T02:10:35;99374.16;;;22.03;77.07
11605;BME280;5858;43.076;25.626;2023-08-21T02:13:04;99419.22;;;22.38;76.39
11605;BME280;5858;43.076;25.626;2023-08-21T02:15:31;99370.06;;;21.79;77.63
11605;BME280;5858;43.076;25.626;2023-08-21T02:17:58;99391.84;;;21.79;78.91
11605;BME280;5858;43.076;25.626;2023-08-21T02:20:25;99415.72;;;21.93;78.10
11605;BME280;5858;43.076;25.626;2023-08-21T02:22:52;99338.56;;;21.44;78.14
11605;BME280;5858;43.076;25.626;2023-08-21T02:25:20;99462.50;;;22.29;77.90
11605;BME280;5858;43.076;25.626;2023-08-21T02:27:47;99462.50;;;22.29;78.38
11605;BME280;5858;43.076;25.626;2023-08-21T02:30:16;99483.41;;;22.23;78.40
11605;BME280;5858;43.076;25.626;2023-08-21T02:32:43;99292.56;;;21.04;78.57
11605;BME280;5858;43.076;25.626;2023-08-21T02:35:10;99483.88;;;21.98;79.63
11605;BME280;5858;43.076;25.626;2023-08-21T02:37:37;99308.75;;;20.94;80.29
11605;BME280;5858;43.076;25.626;2023-08-21T02:40:06;99380.13;;;21.34;81.04
11605;BME280;5858;43.076;25.626;2023-08-21T02:42:34;99460.53;;;21.64;82.14
11605;BME280;5858;43.076;25.626;2023-08-21T02:45:02;99356.28;;;21.08;81.05
11605;BME280;5858;43.076;25.626;2023-08-21T02:47:36;99478.84;;;21.68;81.55
11605;BME280;5858;43.076;25.626;2023-08-21T02:50:06;99219.94;;;20.10;81.41
11605;BME280;5858;43.076;25.626;2023-08-21T02:52:34;99430.31;;;21.44;80.83
11605;BME280;5858;43.076;25.626;2023-08-21T02:55:01;99321.97;;;20.68;81.59
11605;BME280;5858;43.076;25.626;2023-08-21T02:57:29;99380.41;;;21.21;80.59
11605;BME280;5858;43.076;25.626;2023-08-21T02:59:57;99364.25;;;20.93;80.65
11605;BME280;5858;43.076;25.626;2023-08-21T03:02:25;99336.97;;;20.88;80.75
11605;BME280;5858;43.076;25.626;2023-08-21T03:04:54;99410.06;;;21.56;79.28
11605;BME280;5858;43.076;25.626;2023-08-21T03:07:43;99481.63;;;21.90;79.39
11605;BME280;5858;43.076;25.626;2023-08-21T03:10:10;99244.94;;;20.63;78.26
11605;BME280;5858;43.076;25.626;2023-08-21T03:12:37;99368.28;;;21.46;78.23
11605;BME280;5858;43.076;25.626;2023-08-21T03:15:05;99376.50;;;21.29;79.45
11605;BME280;5858;43.076;25.626;2023-08-21T03:17:33;99369.41;;;21.11;79.51
11605;BME280;5858;43.076;25.626;2023-08-21T03:20:02;99483.22;;;21.69;81.79
11605;BME280;5858;43.076;25.626;2023-08-21T03:22:30;99500.19;;;21.93;80.04
11605;BME280;5858;43.076;25.626;2023-08-21T03:24:58;99253.75;;;20.20;81.68
11605;BME280;5858;43.076;25.626;2023-08-21T03:27:25;99307.56;;;20.51;81.09
11605;BME280;5858;43.076;25.626;2023-08-21T03:29:52;99337.03;;;20.93;80.32
11605;BME280;5858;43.076;25.626;2023-08-21T03:32:19;99340.75;;;20.87;80.40
11605;BME280;5858;43.076;25.626;2023-08-21T03:34:47;99293.00;;;20.40;82.06
11605;BME280;5858;43.076;25.626;2023-08-21T03:37:15;99494.91;;;21.48;82.50
11605;BME280;5858;43.076;25.626;2023-08-21T03:39:43;99421.28;;;20.88;83.75
11605;BME280;5858;43.076;25.626;2023-08-21T03:42:10;99494.19;;;21.36;83.71
11605;BME280;5858;43.076;25.626;2023-08-21T03:44:38;99323.41;;;20.26;83.68
11605;BME280;5858;43.076;25.626;2023-08-21T03:47:05;99488.66;;;21.48;83.38
11605;BME280;5858;43.076;25.626;2023-08-21T03:49:32;99265.22;;;20.05;83.23
11605;BME280;5858;43.076;25.626;2023-08-21T03:51:59;99501.81;;;21.56;82.60
11605;BME280;5858;43.076;25.626;2023-08-21T03:54:28;99245.69;;;19.91;82.16
11605;BME280;5858;43.076;25.626;2023-08-21T03:56:55;99259.38;;;20.13;81.77
11605;BME280;5858;43.076;25.626;2023-08-21T03:59:22;99346.13;;;20.82;81.21
11605;BME280;5858;43.076;25.626;2023-08-21T04:01:59;99510.38;;;21.81;80.92
11605;BME280;5858;43.076;25.626;2023-08-21T04:04:30;99427.50;;;21.22;81.32
11605;BME280;5858;43.076;25.626;2023-08-21T04:06:58;99465.16;;;21.42;81.98
11605;BME280;5858;43.076;25.626;2023-08-21T04:09:25;99332.59;;;20.70;81.34
11605;BME280;5858;43.076;25.626;2023-08-21T04:11:53;99352.69;;;21.02;80.85
11605;BME280;5858;43.076;25.626;2023-08-21T04:14:20;99285.25;;;20.49;81.03
11605;BME280;5858;43.076;25.626;2023-08-21T04:16:47;99442.03;;;21.44;80.94
11605;BME280;5858;43.076;25.626;2023-08-21T04:19:14;99330.03;;;20.97;79.91
11605;BME280;5858;43.076;25.626;2023-08-21T04:21:41;99483.31;;;21.96;79.78
11605;BME280;5858;43.076;25.626;2023-08-21T04:24:08;99536.63;;;22.53;78.03
11605;BME280;5858;43.076;25.626;2023-08-21T04:26:35;99474.25;;;22.61;76.50
11605;BME280;5858;43.076;25.626;2023-08-21T04:29:04;99297.44;;;21.67;74.54
11605;BME280;5858;43.076;25.626;2023-08-21T04:31:31;99452.66;;;22.82;73.91
11605;BME280;5858;43.076;25.626;2023-08-21T04:33:58;99309.41;;;22.15;72.74
11605;BME280;5858;43.076;25.626;2023-08-21T04:36:25;99395.69;;;22.90;72.60
11605;BME280;5858;43.076;25.626;2023-08-21T04:38:52;99443.44;;;23.25;71.21
11605;BME280;5858;43.076;25.626;2023-08-21T04:41:19;99492.41;;;23.74;70.23
11605;BME280;5858;43.076;25.626;2023-08-21T04:43:46;99522.81;;;23.88;69.05
11605;BME280;5858;43.076;25.626;2023-08-21T04:46:15;99486.28;;;23.57;69.33
11605;BME280;5858;43.076;25.626;2023-08-21T04:48:42;99524.00;;;24.12;67.64
11605;BME280;5858;43.076;25.626;2023-08-21T04:51:09;99422.81;;;23.44;67.91
11605;BME280;5858;43.076;25.626;2023-08-21T04:53:36;99301.81;;;22.86;68.23
11605;BME280;5858;43.076;25.626;2023-08-21T04:56:05;99409.34;;;23.75;66.41
11605;BME280;5858;43.076;25.626;2023-08-21T04:58:32;99391.06;;;23.91;65.94
11605;BME280;5858;43.076;25.626;2023-08-21T05:00:59;99368.94;;;23.87;64.36
11605;BME280;5858;43.076;25.626;2023-08-21T05:03:28;99495.81;;;24.94;63.05
11605;BME280;5858;43.076;25.626;2023-08-21T05:05:55;99478.34;;;25.10;61.47
11605;BME280;5858;43.076;25.626;2023-08-21T05:08:24;99311.88;;;24.36;60.46
11605;BME280;5858;43.076;25.626;2023-08-21T05:10:57;99548.41;;;25.83;59.78
11605;BME280;5858;43.076;25.626;2023-08-21T05:13:25;99293.56;;;24.47;58.46
11605;BME280;5858;43.076;25.626;2023-08-21T05:15:59;99413.91;;;25.33;58.46
11605;BME280;5858;43.076;25.626;2023-08-21T05:18:32;99460.09;;;25.91;56.91
11605;BME280;5858;43.076;25.626;2023-08-21T05:21:03;99409.69;;;25.82;55.64
11605;BME280;5858;43.076;25.626;2023-08-21T05:23:33;99495.72;;;26.60;54.98
11605;BME280;5858;43.076;25.626;2023-08-21T05:26:01;99439.22;;;26.54;53.65
11605;BME280;5858;43.076;25.626;2023-08-21T05:28:55;99328.69;;;26.04;52.18
11605;BME280;5858;43.076;25.626;2023-08-21T05:31:28;99504.25;;;27.32;51.54
11605;BME280;5858;43.076;25.626;2023-08-21T05:34:04;99547.31;;;27.76;51.27
11605;BME280;5858;43.076;25.626;2023-08-21T05:36:42;99527.91;;;27.91;49.88
11605;BME280;5858;43.076;25.626;2023-08-21T05:39:14;99365.31;;;26.92;49.34
11605;BME280;5858;43.076;25.626;2023-08-21T05:42:07;99435.66;;;27.51;49.68
11605;BME280;5858;43.076;25.626;2023-08-21T05:45:11;99306.69;;;26.78;48.53
11605;BME280;5858;43.076;25.626;2023-08-21T05:47:57;99333.88;;;27.32;48.85
11605;BME280;5858;43.076;25.626;2023-08-21T05:53:51;99492.56;;;28.83;48.07
11605;BME280;5858;43.076;25.626;2023-08-21T05:56:25;99348.13;;;28.19;48.21
11605;BME280;5858;43.076;25.626;2023-08-21T05:58:54;99542.22;;;29.67;46.30
11605;BME280;5858;43.076;25.626;2023-08-21T06:01:41;99338.97;;;28.94;44.80
11605;BME280;5858;43.076;25.626;2023-08-21T06:04:53;99413.38;;;29.68;44.11
11605;BME280;5858;43.076;25.626;2023-08-21T06:07:49;99478.59;;;30.32;42.94
11605;BME280;5858;43.076;25.626;2023-08-21T06:10:22;99496.94;;;30.64;42.99
11605;BME280;5858;43.076;25.626;2023-08-21T06:13:11;99383.13;;;30.04;42.49
11605;BME280;5858;43.076;25.626;2023-08-21T06:18:52;99474.84;;;31.09;41.85
11605;BME280;5858;43.076;25.626;2023-08-21T06:22:01;99536.72;;;31.36;40.83
11605;BME280;5858;43.076;25.626;2023-08-21T06:35:15;99503.66;;;31.61;41.07
11605;BME280;5858;43.076;25.626;2023-08-21T06:38:30;99547.28;;;32.18;41.79
11605;BME280;5858;43.076;25.626;2023-08-21T06:54:39;99472.25;;;31.26;39.52
11605;BME280;5858;43.076;25.626;2023-08-21T06:57:29;99353.28;;;29.92;40.01
11605;BME280;5858;43.076;25.626;2023-08-21T07:03:25;99467.50;;;30.46;41.39
11605;BME280;5858;43.076;25.626;2023-08-21T07:06:12;99432.81;;;30.04;43.15
11605;BME280;5858;43.076;25.626;2023-08-21T07:08:42;99346.59;;;29.57;41.86
11605;BME280;5858;43.076;25.626;2023-08-21T07:11:13;99355.34;;;29.73;42.52
11605;BME280;5858;43.076;25.626;2023-08-21T07:13:40;99545.22;;;31.03;41.29
11605;BME280;5858;43.076;25.626;2023-08-21T07:16:09;99441.00;;;30.45;44.23
11605;BME280;5858;43.076;25.626;2023-08-21T07:18:36;99448.78;;;30.43;40.95
11605;BME280;5858;43.076;25.626;2023-08-21T07:21:03;99485.94;;;30.73;41.19
11605;BME280;5858;43.076;25.626;2023-08-21T07:23:30;99592.34;;;31.34;41.99
11605;BME280;5858;43.076;25.626;2023-08-21T07:25:58;99312.00;;;29.87;41.76
11605;BME280;5858;43.076;25.626;2023-08-21T07:28:29;99459.59;;;30.89;40.54
11605;BME280;5858;43.076;25.626;2023-08-21T07:30:59;99462.47;;;31.07;41.19
11605;BME280;5858;43.076;25.626;2023-08-21T07:33:27;99496.81;;;31.59;40.04
11605;BME280;5858;43.076;25.626;2023-08-21T07:36:08;99460.75;;;31.33;40.24
11605;BME280;5858;43.076;25.626;2023-08-21T07:38:52;99424.97;;;31.37;40.57
11605;BME280;5858;43.076;25.626;2023-08-21T07:41:19;99441.63;;;31.54;39.00
11605;BME280;5858;43.076;25.626;2023-08-21T07:43:49;99502.97;;;31.78;37.86
11605;BME280;5858;43.076;25.626;2023-08-21T07:46:22;99336.66;;;30.78;38.09
11605;BME280;5858;43.076;25.626;2023-08-21T07:48:49;99529.78;;;32.09;38.34
11605;BME280;5858;43.076;25.626;2023-08-21T07:51:31;99438.34;;;31.74;35.37
11605;BME280;5858;43.076;25.626;2023-08-21T07:54:02;99534.16;;;32.49;34.11
11605;BME280;5858;43.076;25.626;2023-08-21T07:56:30;99462.00;;;31.98;33.96
11605;BME280;5858;43.076;25.626;2023-08-21T07:58:59;99494.13;;;32.16;34.42
11605;BME280;5858;43.076;25.626;2023-08-21T08:01:26;99510.03;;;32.33;34.58
11605;BME280;5858;43.076;25.626;2023-08-21T08:03:53;99460.06;;;32.07;33.96
11605;BME280;5858;43.076;25.626;2023-08-21T08:06:20;99355.53;;;31.47;34.73
11605;BME280;5858;43.076;25.626;2023-08-21T08:08:46;99463.59;;;32.38;34.24
11605;BME280;5858;43.076;25.626;2023-08-21T08:11:14;99431.25;;;32.16;32.83
11605;BME280;5858;43.076;25.626;2023-08-21T08:13:41;99471.63;;;32.66;33.63
11605;BME280;5858;43.076;25.626;2023-08-21T08:16:09;99474.06;;;32.67;32.38
11605;BME280;5858;43.076;25.626;2023-08-21T08:18:36;99458.91;;;32.82;33.06
11605;BME280;5858;43.076;25.626;2023-08-21T08:21:03;99473.56;;;33.17;34.55
11605;BME280;5858;43.076;25.626;2023-08-21T08:23:30;99410.59;;;33.00;32.64
11605;BME280;5858;43.076;25.626;2023-08-21T08:25:57;99485.88;;;33.54;32.44
11605;BME280;5858;43.076;25.626;2023-08-21T08:28:24;99478.09;;;33.39;32.57
11605;BME280;5858;43.076;25.626;2023-08-21T08:30:51;99451.31;;;33.43;34.22
11605;BME280;5858;43.076;25.626;2023-08-21T08:33:19;99468.25;;;33.50;33.77
11605;BME280;5858;43.076;25.626;2023-08-21T08:35:46;99480.94;;;33.68;34.13
11605;BME280;5858;43.076;25.626;2023-08-21T08:38:13;99506.78;;;34.07;32.30
11605;BME280;5858;43.076;25.626;2023-08-21T08:40:44;99507.63;;;33.99;31.60
11605;BME280;5858;43.076;25.626;2023-08-21T08:43:11;99487.59;;;33.76;31.42
11605;BME280;5858;43.076;25.626;2023-08-21T08:45:40;99517.25;;;34.01;33.22
11605;BME280;5858;43.076;25.626;2023-08-21T08:48:08;99402.81;;;33.49;32.25
11605;BME280;5858;43.076;25.626;2023-08-21T08:50:37;99378.94;;;33.57;31.33
11605;BME280;5858;43.076;25.626;2023-08-21T08:53:06;99390.69;;;33.62;31.87
11605;BME280;5858;43.076;25.626;2023-08-21T08:55:34;99396.59;;;33.82;32.11
11605;BME280;5858;43.076;25.626;2023-08-21T08:58:02;99418.88;;;34.02;32.46
11605;BME280;5858;43.076;25.626;2023-08-21T09:00:30;99458.97;;;34.22;32.54
11605;BME280;5858;43.076;25.626;2023-08-21T09:02:57;99478.28;;;34.19;30.56
11605;BME280;5858;43.076;25.626;2023-08-21T09:05:24;99413.13;;;33.78;31.94
11605;BME280;5858;43.076;25.626;2023-08-21T09:08:09;99445.34;;;34.29;33.39
11605;BME280;5858;43.076;25.626;2023-08-21T09:10:37;99302.22;;;33.52;31.16
11605;BME280;5858;43.076;25.626;2023-08-21T09:13:09;99419.63;;;34.41;31.80
11605;BME280;5858;43.076;25.626;2023-08-21T09:15:36;99476.06;;;34.83;30.99
11605;BME280;5858;43.076;25.626;2023-08-21T09:18:03;99297.00;;;33.80;32.06
11605;BME280;5858;43.076;25.626;2023-08-21T09:20:34;99410.59;;;34.65;32.94
11605;BME280;5858;43.076;25.626;2023-08-21T09:23:01;99410.88;;;34.72;30.85
11605;BME280;5858;43.076;25.626;2023-08-21T09:25:34;99417.25;;;34.52;29.94
11605;BME280;5858;43.076;25.626;2023-08-21T09:28:04;99465.88;;;34.87;31.07
11605;BME280;5858;43.076;25.626;2023-08-21T09:30:43;99277.16;;;33.69;31.19
11605;BME280;5858;43.076;25.626;2023-08-21T09:33:10;99420.91;;;34.64;30.08
11605;BME280;5858;43.076;25.626;2023-08-21T09:35:37;99362.97;;;34.33;31.38
11605;BME280;5858;43.076;25.626;2023-08-21T09:38:05;99403.56;;;34.47;30.09
11605;BME280;5858;43.076;25.626;2023-08-21T09:40:33;99363.34;;;33.73;30.68
11605;BME280;5858;43.076;25.626;2023-08-21T09:43:03;99403.63;;;33.88;31.69
11605;BME280;5858;43.076;25.626;2023-08-21T09:45:30;99407.25;;;34.09;31.31
11605;BME280;5858;43.076;25.626;2023-08-21T09:47:58;99418.06;;;33.72;31.13
11605;BME280;5858;43.076;25.626;2023-08-21T09:50:26;99450.09;;;34.08;31.03
11605;BME280;5858;43.076;25.626;2023-08-21T09:52:56;99440.91;;;34.37;32.54
11605;BME280;5858;43.076;25.626;2023-08-21T09:55:23;99453.13;;;34.65;31.23
11605;BME280;5858;43.076;25.626;2023-08-21T09:57:53;99356.59;;;34.33;32.07
11605;BME280;5858;43.076;25.626;2023-08-21T10:00:24;99360.72;;;34.48;30.90
11605;BME280;5858;43.076;25.626;2023-08-21T10:02:53;99398.88;;;34.59;29.48
11605;BME280;5858;43.076;25.626;2023-08-21T10:05:21;99344.25;;;34.22;30.62
11605;BME280;5858;43.076;25.626;2023-08-21T10:07:49;99328.31;;;34.31;30.14
11605;BME280;5858;43.076;25.626;2023-08-21T10:10:16;99378.03;;;34.53;29.59
11605;BME280;5858;43.076;25.626;2023-08-21T10:12:43;99391.56;;;34.55;29.35
11605;BME280;5858;43.076;25.626;2023-08-21T10:15:12;99296.47;;;33.87;29.53
11605;BME280;5858;43.076;25.626;2023-08-21T10:17:41;99421.00;;;34.56;28.76
11605;BME280;5858;43.076;25.626;2023-08-21T10:20:10;99294.53;;;33.87;29.03
11605;BME280;5858;43.076;25.626;2023-08-21T10:22:39;99370.06;;;34.43;29.07
11605;BME280;5858;43.076;25.626;2023-08-21T10:25:15;99320.13;;;33.93;29.39
11605;BME280;5858;43.076;25.626;2023-08-21T10:27:43;99330.81;;;34.03;29.00
11605;BME280;5858;43.076;25.626;2023-08-21T10:30:24;99409.88;;;34.35;28.74
11605;BME280;5858;43.076;25.626;2023-08-21T10:32:54;99304.00;;;33.57;28.74
11605;BME280;5858;43.076;25.626;2023-08-21T10:35:22;99414.88;;;34.41;29.30
11605;BME280;5858;43.076;25.626;2023-08-21T10:38:09;99283.19;;;33.71;29.85
11605;BME280;5858;43.076;25.626;2023-08-21T10:43:37;99403.09;;;34.65;29.17
11605;BME280;5858;43.076;25.626;2023-08-21T10:46:06;99269.66;;;33.91;28.79
11605;BME280;5858;43.076;25.626;2023-08-21T10:48:34;99362.41;;;34.61;28.70
11605;BME280;5858;43.076;25.626;2023-08-21T10:51:08;99363.72;;;34.76;28.06
11605;BME280;5858;43.076;25.626;2023-08-21T10:53:35;99350.50;;;34.72;28.40
11605;BME280;5858;43.076;25.626;2023-08-21T10:56:07;99290.41;;;34.47;28.04
11605;BME280;5858;43.076;25.626;2023-08-21T10:58:35;99402.50;;;35.38;27.65
11605;BME280;5858;43.076;25.626;2023-08-21T11:01:07;99325.81;;;34.17;28.64
11605;BME280;5858;43.076;25.626;2023-08-21T11:03:38;99290.38;;;34.14;28.75
11605;BME280;5858;43.076;25.626;2023-08-21T11:06:07;99290.09;;;34.28;28.96
11605;BME280;5858;43.076;25.626;2023-08-21T11:08:37;99323.84;;;34.71;28.54
11605;BME280;5858;43.076;25.626;2023-08-21T11:11:05;99385.44;;;35.27;27.93
11605;BME280;5858;43.076;25.626;2023-08-21T11:13:33;99218.59;;;34.37;28.66
11605;BME280;5858;43.076;25.626;2023-08-21T11:16:02;99376.22;;;35.48;29.14
11605;BME280;5858;43.076;25.626;2023-08-21T11:18:33;99331.03;;;35.18;28.88
11605;BME280;5858;43.076;25.626;2023-08-21T11:21:05;99255.91;;;34.93;28.74
11605;BME280;5858;43.076;25.626;2023-08-21T11:23:35;99296.75;;;35.38;28.03
11605;BME280;5858;43.076;25.626;2023-08-21T11:26:03;99376.31;;;36.00;28.44
11605;BME280;5858;43.076;25.626;2023-08-21T11:28:32;99226.94;;;35.19;27.74
11605;BME280;5858;43.076;25.626;2023-08-21T11:31:00;99197.97;;;34.83;28.34
11605;BME280;5858;43.076;25.626;2023-08-21T11:33:32;99272.16;;;35.40;27.27
11605;BME280;5858;43.076;25.626;2023-08-21T11:36:00;99168.75;;;34.89;27.10
11605;BME280;5858;43.076;25.626;2023-08-21T11:38:41;99188.81;;;35.07;27.49
11605;BME280;5858;43.076;25.626;2023-08-21T11:41:09;99257.78;;;35.38;27.54
11605;BME280;5858;43.076;25.626;2023-08-21T11:43:37;99253.38;;;35.37;27.79
11605;BME280;5858;43.076;25.626;2023-08-21T11:46:06;99271.69;;;35.26;27.40
11605;BME280;5858;43.076;25.626;2023-08-21T11:48:59;99281.44;;;35.56;27.39
11605;BME280;5858;43.076;25.626;2023-08-21T11:51:49;99240.13;;;35.46;27.31
11605;BME280;5858;43.076;25.626;2023-08-21T11:54:19;99350.91;;;36.02;27.44
11605;BME280;5858;43.076;25.626;2023-08-21T11:56:48;99166.78;;;34.90;27.46
11605;BME280;5858;43.076;25.626;2023-08-21T11:59:21;99280.50;;;35.64;27.03
11605;BME280;5858;43.076;25.626;2023-08-21T12:01:50;99300.50;;;35.94;26.67
11605;BME280;5858;43.076;25.626;2023-08-21T12:04:27;99239.94;;;35.51;27.07
11605;BME280;5858;43.076;25.626;2023-08-21T12:07:08;99175.34;;;35.33;26.94
11605;BME280;5858;43.076;25.626;2023-08-21T12:09:46;99168.31;;;35.64;27.51
11605;BME280;5858;43.076;25.626;2023-08-21T12:12:18;99231.59;;;36.19;25.23
11605;BME280;5858;43.076;25.626;2023-08-21T12:14:47;99195.72;;;36.18;26.77
11605;BME280;5858;43.076;25.626;2023-08-21T12:17:21;99332.91;;;37.27;25.46
11605;BME280;5858;43.076;25.626;2023-08-21T12:19:50;99261.06;;;37.08;24.90
11605;BME280;5858;43.076;25.626;2023-08-21T12:22:20;99177.09;;;36.66;24.36
11605;BME280;5858;43.076;25.626;2023-08-21T12:25:03;99251.59;;;37.28;24.96
11605;BME280;5858;43.076;25.626;2023-08-21T12:27:31;99207.91;;;37.20;25.08
11605;BME280;5858;43.076;25.626;2023-08-21T12:29:58;99309.03;;;37.96;24.19
11605;BME280;5858;43.076;25.626;2023-08-21T12:32:39;99274.56;;;37.37;24.62
11605;BME280;5858;43.076;25.626;2023-08-21T12:35:21;99126.09;;;35.90;24.64
11605;BME280;5858;43.076;25.626;2023-08-21T12:38:10;99317.53;;;36.73;25.60
11605;BME280;5858;43.076;25.626;2023-08-21T12:40:38;99212.88;;;36.04;25.15
11605;BME280;5858;43.076;25.626;2023-08-21T12:43:13;99207.19;;;36.01;25.34
11605;BME280;5858;43.076;25.626;2023-08-21T12:45:42;99112.41;;;35.17;25.34
11605;BME280;5858;43.076;25.626;2023-08-21T12:48:17;99239.00;;;35.23;27.22
11605;BME280;5858;43.076;25.626;2023-08-21T12:50:46;99327.34;;;34.48;33.79
11605;BME280;5858;43.076;25.626;2023-08-21T12:53:13;99280.97;;;32.89;38.15
11605;BME280;5858;43.076;25.626;2023-08-21T12:55:43;99396.16;;;29.30;59.03
11605;BME280;5858;43.076;25.626;2023-08-21T12:58:13;99179.38;;;26.92;70.45
11605;BME280;5858;43.076;25.626;2023-08-21T14:21:34;99116.47;;;31.65;44.03
11605;BME280;5858;43.076;25.626;2023-08-21T14:24:24;99166.09;;;32.05;43.73
11605;BME280;5858;43.076;25.626;2023-08-21T14:33:48;99253.50;;;33.13;43.52
11605;BME280;5858;43.076;25.626;2023-08-21T14:36:50;99253.22;;;33.35;40.48
11605;BME280;5858;43.076;25.626;2023-08-21T14:46:34;99242.16;;;33.98;38.38
11605;BME280;5858;43.076;25.626;2023-08-21T14:49:38;99062.25;;;32.96;37.06
11605;BME280;5858;43.076;25.626;2023-08-21T14:52:21;99260.34;;;34.28;34.93
11605;BME280;5858;43.076;25.626;2023-08-21T14:54:55;99202.31;;;34.15;34.73
11605;BME280;5858;43.076;25.626;2023-08-21T14:57:33;99130.56;;;33.84;36.42
11605;BME280;5858;43.076;25.626;2023-08-21T15:00:01;99243.00;;;34.64;33.84
11605;BME280;5858;43.076;25.626;2023-08-21T15:02:51;99234.78;;;34.80;34.13
11605;BME280;5858;43.076;25.626;2023-08-21T15:05:33;99223.00;;;34.95;34.60
11605;BME280;5858;43.076;25.626;2023-08-21T15:08:03;99195.19;;;34.83;34.13
11605;BME280;5858;43.076;25.626;2023-08-21T15:10:43;99085.66;;;34.27;33.58
11605;BME280;5858;43.076;25.626;2023-08-21T15:13:37;99141.16;;;34.48;34.28
11605;BME280;5858;43.076;25.626;2023-08-21T15:16:07;99238.31;;;35.14;34.75
11605;BME280;5858;43.076;25.626;2023-08-21T15:18:44;99173.59;;;34.68;33.87
11605;BME280;5858;43.076;25.626;2023-08-21T15:21:18;99032.84;;;33.57;34.48
11605;BME280;5858;43.076;25.626;2023-08-21T15:23:52;99183.53;;;34.45;33.22
11605;BME280;5858;43.076;25.626;2023-08-21T15:26:25;99053.63;;;33.51;34.60
11605;BME280;5858;43.076;25.626;2023-08-21T15:29:04;99107.06;;;33.81;34.77
11605;BME280;5858;43.076;25.626;2023-08-21T15:32:07;99064.84;;;33.55;36.28
11605;BME280;5858;43.076;25.626;2023-08-21T15:34:57;99220.13;;;34.47;36.66
11605;BME280;5858;43.076;25.626;2023-08-21T15:37:29;99042.38;;;33.35;37.17